createdAt,value
2023-05-14T00:02:02.707Z,96130.50
2023-05-14T00:04:34.585Z,96118.81
2023-05-14T00:07:02.453Z,96116.22
2023-05-14T00:09:30.301Z,96127.72
2023-05-14T00:11:57.864Z,96115.97
2023-05-14T00:14:25.577Z,96114.19
2023-05-14T00:16:53.139Z,96134.47
2023-05-14T00:19:20.697Z,96125.09
2023-05-14T00:21:49.659Z,96119.78
2023-05-14T00:24:17.184Z,96123.09
2023-05-14T00:26:45.936Z,96113.41
2023-05-14T00:29:13.433Z,96119.72
2023-05-14T00:31:41.033Z,96104.31
2023-05-14T00:34:08.606Z,96120.34
2023-05-14T00:36:36.276Z,96096.66
2023-05-14T00:39:05.397Z,96114.44
2023-05-14T00:41:33.224Z,96110.06
2023-05-14T00:44:00.905Z,96104.16
2023-05-14T00:46:28.723Z,96106.19
2023-05-14T00:48:56.928Z,96102.59
2023-05-14T00:51:24.907Z,96070.81
2023-05-14T00:53:53.832Z,96110.94
2023-05-14T00:56:22.909Z,96101.03
2023-05-14T00:58:50.470Z,96070.34
2023-05-14T01:01:18.165Z,96103.41
2023-05-14T01:03:46.376Z,96104.38
2023-05-14T01:06:19.085Z,96098.03
2023-05-14T01:08:54.387Z,96093.13
2023-05-14T01:11:30.199Z,96095.78
2023-05-14T01:14:04.287Z,96105.44
2023-05-14T01:16:35.114Z,96089.38
2023-05-14T01:19:03.629Z,96095.72
2023-05-14T01:21:44.365Z,96089.25
2023-05-14T01:24:11.795Z,96096.38
2023-05-14T01:26:39.240Z,96075.38
2023-05-14T01:29:14.654Z,96087.03
2023-05-14T01:31:44.554Z,96090.75
2023-05-14T01:34:14.911Z,96086.03
2023-05-14T01:36:44.782Z,96087.94
2023-05-14T01:39:15.081Z,96093.13
2023-05-14T01:41:43.652Z,96060.56
2023-05-14T01:44:12.027Z,96086.59
2023-05-14T01:46:39.712Z,96078.97
2023-05-14T01:49:07.188Z,96082.13
2023-05-14T01:51:34.829Z,96071.78
2023-05-14T01:54:03.596Z,96076.06
2023-05-14T01:56:31.003Z,96069.09
2023-05-14T01:58:58.428Z,96080.28
2023-05-14T02:01:26.089Z,96065.22
2023-05-14T02:03:53.583Z,96078.28
2023-05-14T02:06:21.041Z,96071.25
2023-05-14T02:08:48.431Z,96070.69
2023-05-14T02:11:17.288Z,96068.41
2023-05-14T02:13:44.891Z,96065.66
2023-05-14T02:16:12.399Z,96071.78
2023-05-14T02:18:39.917Z,96075.97
2023-05-14T02:21:07.396Z,96068.72
2023-05-14T02:23:41.507Z,96071.72
2023-05-14T02:26:10.516Z,96069.78
2023-05-14T02:28:39.275Z,96067.56
2023-05-14T02:31:06.775Z,96065.78
2023-05-14T02:33:34.267Z,96066.94
2023-05-14T02:36:01.660Z,96064.19
2023-05-14T02:38:29.024Z,96045.59
2023-05-14T02:40:56.453Z,96048.13
2023-05-14T02:43:23.924Z,96055.44
2023-05-14T02:45:52.682Z,96061.13
2023-05-14T02:48:20.110Z,96047.91
2023-05-14T02:50:48.291Z,96053.44
2023-05-14T02:53:15.689Z,96051.72
2023-05-14T02:55:43.112Z,96047.94
2023-05-14T02:58:10.956Z,96011.13
2023-05-14T03:00:38.496Z,96038.03
2023-05-14T03:03:07.733Z,96037.22
2023-05-14T03:05:35.662Z,96045.91
2023-05-14T03:08:03.118Z,96048.13
2023-05-14T03:10:31.042Z,96045.25
2023-05-14T03:12:58.495Z,96031.00
2023-05-14T03:15:26.000Z,96029.31
2023-05-14T03:17:53.460Z,96034.22
2023-05-14T03:20:22.569Z,96034.44
2023-05-14T03:22:50.208Z,96034.81
2023-05-14T03:25:17.748Z,96029.34
2023-05-14T03:27:45.256Z,96033.41
2023-05-14T03:30:13.314Z,96014.50
2023-05-14T03:32:41.191Z,96006.28
2023-05-14T03:35:09.411Z,96032.34
2023-05-14T03:37:38.174Z,96022.09
2023-05-14T03:40:07.041Z,96009.59
2023-05-14T03:42:34.483Z,96026.03
2023-05-14T03:45:01.880Z,96016.69
2023-05-14T03:47:29.321Z,96019.47
2023-05-14T03:49:57.699Z,96012.94
2023-05-14T03:52:25.141Z,95976.00
2023-05-14T03:54:54.009Z,95998.13
2023-05-14T03:57:21.445Z,96005.41
2023-05-14T03:59:48.865Z,96006.22
2023-05-14T04:02:16.573Z,96011.09
2023-05-14T04:04:44.129Z,96004.09
2023-05-14T04:07:11.616Z,96002.59
2023-05-14T04:09:39.039Z,96016.31
2023-05-14T04:12:09.170Z,96010.19
2023-05-14T04:14:36.664Z,96002.28
2023-05-14T04:17:04.313Z,96002.78
2023-05-14T04:19:31.766Z,96006.97
2023-05-14T04:21:59.252Z,96006.41
2023-05-14T04:24:26.745Z,96016.78
2023-05-14T04:26:54.195Z,96018.72
2023-05-14T04:29:23.208Z,96018.13
2023-05-14T04:31:51.058Z,95987.50
2023-05-14T04:34:18.549Z,96015.38
2023-05-14T04:36:46.528Z,96012.94
2023-05-14T04:39:14.051Z,96007.44
2023-05-14T04:41:42.553Z,96020.91
2023-05-14T04:44:09.984Z,96021.59
2023-05-14T04:46:38.787Z,96024.88
2023-05-14T04:49:06.212Z,96026.72
2023-05-14T04:51:33.636Z,96028.31
2023-05-14T04:54:01.115Z,96019.47
2023-05-14T04:56:28.546Z,96027.88
2023-05-14T04:58:56.070Z,96008.59
2023-05-14T05:01:24.054Z,96022.69
2023-05-14T05:03:53.001Z,96019.66
2023-05-14T05:06:20.420Z,96031.03
2023-05-14T05:08:47.792Z,96027.66
2023-05-14T05:11:15.256Z,96020.22
2023-05-14T05:13:42.684Z,96031.38
2023-05-14T05:16:10.148Z,96028.84
2023-05-14T05:18:37.599Z,96007.66
2023-05-14T05:21:06.745Z,96023.31
2023-05-14T05:23:34.182Z,96023.00
2023-05-14T05:26:01.588Z,96015.97
2023-05-14T05:28:29.021Z,96017.47
2023-05-14T05:30:56.508Z,96016.78
2023-05-14T05:33:24.007Z,96007.47
2023-05-14T05:35:52.321Z,96014.44
2023-05-14T05:38:21.046Z,96023.38
2023-05-14T05:40:48.805Z,96015.13
2023-05-14T05:43:16.610Z,96022.28
2023-05-14T05:45:44.015Z,96016.97
2023-05-14T05:48:11.437Z,96012.81
2023-05-14T05:50:38.866Z,96016.53
2023-05-14T05:53:06.464Z,96012.69
2023-05-14T05:55:35.270Z,96013.28
2023-05-14T05:58:02.767Z,96015.03
2023-05-14T06:00:31.124Z,96006.53
2023-05-14T06:02:58.522Z,96020.47
2023-05-14T06:05:26.105Z,96012.94
2023-05-14T06:07:53.863Z,96015.34
2023-05-14T06:10:21.470Z,96012.72
2023-05-14T06:12:50.311Z,96024.50
2023-05-14T06:15:17.806Z,96015.06
2023-05-14T06:17:45.798Z,96021.56
2023-05-14T06:20:13.859Z,96022.03
2023-05-14T06:22:41.324Z,96020.75
2023-05-14T06:25:09.755Z,96024.84
2023-05-14T06:27:37.235Z,96020.41
2023-05-14T06:30:07.465Z,96019.63
2023-05-14T06:32:34.932Z,96020.22
2023-05-14T06:35:02.393Z,96009.81
2023-05-14T06:37:29.785Z,96011.22
2023-05-14T06:39:58.021Z,96018.25
2023-05-14T06:42:26.247Z,96008.03
2023-05-14T06:44:54.462Z,96019.97
2023-05-14T06:47:23.275Z,96017.66
2023-05-14T06:49:50.721Z,96019.78
2023-05-14T06:52:18.141Z,96009.09
2023-05-14T06:54:45.537Z,96018.78
2023-05-14T06:57:12.985Z,96017.81
2023-05-14T06:59:40.383Z,96019.66
2023-05-14T07:02:07.998Z,96008.28
2023-05-14T07:04:37.266Z,96022.44
2023-05-14T07:07:06.603Z,96016.69
2023-05-14T07:09:34.070Z,96013.03
2023-05-14T07:12:01.472Z,96021.38
2023-05-14T07:14:28.904Z,96024.34
2023-05-14T07:16:57.142Z,96013.94
2023-05-14T07:19:24.649Z,96017.97
2023-05-14T07:21:53.369Z,96024.78
2023-05-14T07:24:21.132Z,96025.56
2023-05-14T07:26:48.574Z,95983.22
2023-05-14T07:29:16.102Z,96012.78
2023-05-14T07:31:43.760Z,96022.09
2023-05-14T07:34:12.615Z,96018.44
2023-05-14T07:36:41.036Z,96022.59
2023-05-14T07:39:09.788Z,96016.88
2023-05-14T07:41:37.236Z,96016.19
2023-05-14T07:44:04.923Z,96019.88
2023-05-14T07:46:32.347Z,96013.59
2023-05-14T07:48:59.758Z,96010.59
2023-05-14T07:51:28.275Z,96008.91
2023-05-14T07:53:56.377Z,96011.69
2023-05-14T07:56:25.547Z,96004.47
2023-05-14T07:58:52.934Z,95996.09
2023-05-14T08:01:20.679Z,96006.28
2023-05-14T08:03:48.184Z,95997.56
2023-05-14T08:06:15.792Z,96002.44
2023-05-14T08:08:43.210Z,95995.13
2023-05-14T08:11:10.853Z,95983.97
2023-05-14T08:13:39.718Z,95990.94
2023-05-14T08:16:08.671Z,95997.97
2023-05-14T08:18:36.158Z,95985.50
2023-05-14T08:21:03.912Z,95990.13
2023-05-14T08:23:31.515Z,95993.00
2023-05-14T08:25:59.123Z,95995.75
2023-05-14T08:28:26.695Z,96001.75
2023-05-14T08:30:55.860Z,96000.75
2023-05-14T08:33:23.342Z,95992.13
2023-05-14T08:35:51.594Z,96005.13
2023-05-14T08:38:19.013Z,95996.69
2023-05-14T08:40:49.328Z,95991.19
2023-05-14T08:43:21.814Z,95997.47
2023-05-14T08:45:54.076Z,95976.53
2023-05-14T08:48:24.438Z,95980.41
2023-05-14T08:50:52.259Z,95985.88
2023-05-14T08:53:19.855Z,95986.88
2023-05-14T08:55:49.012Z,95981.44
2023-05-14T08:58:17.118Z,95992.25
2023-05-14T09:00:44.834Z,95981.31
2023-05-14T09:03:13.503Z,95987.00
2023-05-14T09:05:42.594Z,95973.31
2023-05-14T09:08:10.230Z,95994.91
2023-05-14T09:10:40.178Z,95985.72
2023-05-14T09:13:10.014Z,95982.03
2023-05-14T09:15:38.358Z,95977.47
2023-05-14T09:18:06.568Z,95988.16
2023-05-14T09:20:34.614Z,95953.22
2023-05-14T09:23:03.539Z,95987.63
2023-05-14T09:25:32.880Z,95977.94
2023-05-14T09:28:00.873Z,95982.31
2023-05-14T09:30:28.458Z,95972.28
2023-05-14T09:32:56.308Z,95958.22
2023-05-14T09:35:26.067Z,95983.91
2023-05-14T09:37:55.381Z,95947.72
2023-05-14T09:40:25.410Z,95976.31
2023-05-14T09:42:53.323Z,95939.38
2023-05-14T09:45:21.176Z,95959.97
2023-05-14T09:47:49.558Z,95946.91
2023-05-14T09:50:17.265Z,95978.31
2023-05-14T09:52:44.874Z,95969.25
2023-05-14T09:55:12.411Z,95960.28
2023-05-14T09:57:41.461Z,95971.06
2023-05-14T10:00:10.353Z,95965.19
2023-05-14T10:02:40.920Z,95966.56
2023-05-14T10:05:09.611Z,95973.53
2023-05-14T10:07:41.990Z,95970.44
2023-05-14T10:10:17.508Z,95950.97
2023-05-14T10:12:52.578Z,95970.72
2023-05-14T10:15:24.937Z,95966.00
2023-05-14T10:17:59.875Z,95975.03
2023-05-14T10:20:28.656Z,95960.09
2023-05-14T10:22:57.207Z,95947.97
2023-05-14T10:25:25.213Z,95958.13
2023-05-14T10:27:55.008Z,95955.44
2023-05-14T10:30:24.025Z,95941.88
2023-05-14T10:33:07.550Z,95946.38
2023-05-14T10:35:57.389Z,95949.03
2023-05-14T10:38:27.721Z,95943.38
2023-05-14T10:41:00.810Z,95941.03
2023-05-14T10:43:31.079Z,95945.34
2023-05-14T10:45:59.657Z,95938.94
2023-05-14T10:48:27.723Z,95928.63
2023-05-14T10:50:57.428Z,95948.44
2023-05-14T10:53:33.655Z,95946.75
2023-05-14T10:56:04.434Z,95944.53
2023-05-14T10:58:36.063Z,95949.22
2023-05-14T11:01:03.669Z,95941.78
2023-05-14T11:03:31.976Z,95939.25
2023-05-14T11:06:04.198Z,95923.22
2023-05-14T11:08:32.090Z,95921.03
2023-05-14T11:10:59.634Z,95927.94
2023-05-14T11:13:27.154Z,95940.53
2023-05-14T11:15:56.798Z,95935.84
2023-05-14T11:18:28.574Z,95926.59
2023-05-14T11:20:59.246Z,95940.50
2023-05-14T11:23:27.233Z,95930.84
2023-05-14T11:25:55.414Z,95924.88
2023-05-14T11:28:22.949Z,95912.97
2023-05-14T11:30:51.009Z,95920.22
2023-05-14T11:33:20.639Z,95908.06
2023-05-14T11:35:48.532Z,95916.31
2023-05-14T11:38:17.054Z,95920.09
2023-05-14T11:40:45.327Z,95928.78
2023-05-14T11:43:12.775Z,95917.47
2023-05-14T11:45:40.352Z,95917.47
2023-05-14T11:48:15.672Z,95907.88
2023-05-14T11:50:48.365Z,95914.69
2023-05-14T11:53:18.827Z,95900.91
2023-05-14T11:55:46.816Z,95893.06
2023-05-14T11:58:15.730Z,95919.41
2023-05-14T12:00:45.432Z,95903.13
2023-05-14T12:03:13.372Z,95899.03
2023-05-14T12:05:40.991Z,95893.31
2023-05-14T12:08:22.198Z,95902.41
2023-05-14T12:10:49.747Z,95905.84
2023-05-14T12:13:17.932Z,95900.47
2023-05-14T12:15:47.236Z,95891.59
2023-05-14T12:18:23.815Z,95889.22
2023-05-14T12:20:52.350Z,95879.03
2023-05-14T12:23:27.551Z,95882.38
2023-05-14T12:25:54.994Z,95874.88
2023-05-14T12:28:24.196Z,95842.69
2023-05-14T12:30:56.900Z,95870.19
2023-05-14T12:33:26.320Z,95874.94
2023-05-14T12:35:58.850Z,95863.91
2023-05-14T12:38:29.424Z,95859.00
2023-05-14T12:40:56.807Z,95859.00
2023-05-14T12:43:24.195Z,95862.25
2023-05-14T12:45:51.589Z,95845.19
2023-05-14T12:48:18.976Z,95854.09
2023-05-14T12:50:48.406Z,95861.41
2023-05-14T12:53:16.286Z,95862.59
2023-05-14T12:55:45.139Z,95858.75
2023-05-14T12:58:12.576Z,95860.00
2023-05-14T13:00:39.972Z,95831.41
2023-05-14T13:03:07.446Z,95858.84
2023-05-14T13:05:35.043Z,95857.06
2023-05-14T13:08:03.782Z,95860.41
2023-05-14T13:10:31.173Z,95854.94
2023-05-14T13:12:59.927Z,95856.66
2023-05-14T13:15:27.429Z,95854.03
2023-05-14T13:17:54.943Z,95838.53
2023-05-14T13:20:23.493Z,95847.69
2023-05-14T13:22:51.025Z,95853.97
2023-05-14T13:25:18.608Z,95854.66
2023-05-14T13:27:46.021Z,95852.81
2023-05-14T13:30:15.242Z,95849.84
2023-05-14T13:32:42.621Z,95841.81
2023-05-14T13:35:10.434Z,95836.97
2023-05-14T13:37:37.985Z,95845.16
2023-05-14T13:40:08.222Z,95849.50
2023-05-14T13:42:35.924Z,95844.09
2023-05-14T13:45:03.763Z,95830.91
2023-05-14T13:47:32.726Z,95829.94
2023-05-14T13:50:00.659Z,95811.00
2023-05-14T13:52:28.083Z,95847.16
2023-05-14T13:54:56.348Z,95831.91
2023-05-14T13:57:23.988Z,95850.53
2023-05-14T13:59:51.545Z,95849.16
2023-05-14T14:02:18.980Z,95850.47
2023-05-14T14:04:49.220Z,95843.03
2023-05-14T14:07:16.655Z,95814.03
2023-05-14T14:09:45.084Z,95817.31
2023-05-14T14:12:12.518Z,95816.00
2023-05-14T14:14:40.059Z,95818.88
2023-05-14T14:17:08.876Z,95809.38
2023-05-14T14:19:36.313Z,95811.16
2023-05-14T14:22:05.339Z,95813.13
2023-05-14T14:24:32.891Z,95815.47
2023-05-14T14:27:02.115Z,95805.41
2023-05-14T14:29:30.957Z,95803.59
2023-05-14T14:31:58.439Z,95810.94
2023-05-14T14:34:26.277Z,95810.69
2023-05-14T14:36:53.705Z,95810.47
2023-05-14T14:39:25.105Z,95813.22
2023-05-14T14:41:52.579Z,95805.44
2023-05-14T14:44:20.065Z,95814.97
2023-05-14T14:46:48.388Z,95800.81
2023-05-14T14:49:15.787Z,95797.28
2023-05-14T14:51:43.233Z,95789.41
2023-05-14T14:54:10.693Z,95792.88
2023-05-14T14:56:40.040Z,95783.63
2023-05-14T14:59:07.444Z,95770.56
2023-05-14T15:01:34.897Z,95790.56
2023-05-14T15:04:02.388Z,95795.75
2023-05-14T15:06:29.788Z,95793.75
2023-05-14T15:08:57.178Z,95787.97
2023-05-14T15:11:24.641Z,95789.28
2023-05-14T15:13:53.430Z,95782.06
2023-05-14T15:16:20.965Z,95773.09
2023-05-14T15:18:48.496Z,95782.38
2023-05-14T15:21:16.052Z,95767.47
2023-05-14T15:23:43.489Z,95772.91
2023-05-14T15:26:10.909Z,95768.03
2023-05-14T15:28:38.325Z,95764.16
2023-05-14T15:31:07.256Z,95768.81
2023-05-14T15:33:34.774Z,95760.09
2023-05-14T15:36:02.225Z,95760.91
2023-05-14T15:38:29.654Z,95732.13
2023-05-14T15:40:57.073Z,95747.06
2023-05-14T15:43:24.698Z,95754.09
2023-05-14T15:45:52.106Z,95751.63
2023-05-14T15:48:20.860Z,95718.28
2023-05-14T15:50:49.765Z,95745.84
2023-05-14T15:53:17.408Z,95737.06
2023-05-14T15:55:45.412Z,95743.50
2023-05-14T15:58:13.241Z,95735.00
2023-05-14T16:00:40.702Z,95733.56
2023-05-14T16:03:08.269Z,95734.72
2023-05-14T16:05:37.226Z,95729.72
2023-05-14T16:08:04.633Z,95735.31
2023-05-14T16:10:32.035Z,95726.59
2023-05-14T16:12:59.487Z,95732.34
2023-05-14T16:15:26.924Z,95735.88
2023-05-14T16:17:54.382Z,95734.22
2023-05-14T16:20:22.343Z,95728.28
2023-05-14T16:22:51.261Z,95721.28
2023-05-14T16:25:19.203Z,95739.91
2023-05-14T16:27:46.740Z,95740.59
2023-05-14T16:30:14.429Z,95723.81
2023-05-14T16:32:42.167Z,95732.88
2023-05-14T16:35:10.697Z,95737.41
2023-05-14T16:37:38.144Z,95729.78
2023-05-14T16:40:11.018Z,95734.75
2023-05-14T16:42:38.557Z,95739.88
2023-05-14T16:45:06.801Z,95713.25
2023-05-14T16:47:34.263Z,95691.41
2023-05-14T16:50:01.744Z,95724.16
2023-05-14T16:52:29.344Z,95713.91
2023-05-14T16:54:56.766Z,95733.53
2023-05-14T16:57:26.332Z,95729.53
2023-05-14T16:59:53.975Z,95699.78
2023-05-14T17:02:21.454Z,95715.38
2023-05-14T17:04:48.979Z,95716.69
2023-05-14T17:07:16.518Z,95723.31
2023-05-14T17:09:43.911Z,95728.69
2023-05-14T17:12:13.019Z,95719.31
2023-05-14T17:14:41.819Z,95728.97
2023-05-14T17:17:09.206Z,95724.59
2023-05-14T17:19:36.617Z,95719.00
2023-05-14T17:22:05.746Z,95724.50
2023-05-14T17:24:34.522Z,95720.03
2023-05-14T17:27:01.986Z,95709.63
2023-05-14T17:29:29.485Z,95677.50
2023-05-14T17:31:58.613Z,95728.22
2023-05-14T17:34:26.635Z,95693.28
2023-05-14T17:36:54.240Z,95715.16
2023-05-14T17:39:21.766Z,95715.25
2023-05-14T17:41:49.455Z,95726.16
2023-05-14T17:44:17.118Z,95724.31
2023-05-14T17:46:45.736Z,95730.00
2023-05-14T17:49:14.867Z,95734.75
2023-05-14T17:51:42.512Z,95717.53
2023-05-14T17:54:10.067Z,95729.06
2023-05-14T17:56:37.720Z,95744.47
2023-05-14T17:59:05.304Z,95737.38
2023-05-14T18:01:32.939Z,95743.94
2023-05-14T18:04:00.680Z,95735.53
2023-05-14T18:06:29.729Z,95731.59
2023-05-14T18:08:57.449Z,95715.13
2023-05-14T18:11:25.137Z,95733.31
2023-05-14T18:13:52.656Z,95747.19
2023-05-14T18:16:20.331Z,95726.13
2023-05-14T18:18:48.019Z,95741.00
2023-05-14T18:21:16.130Z,95745.13
2023-05-14T18:23:45.120Z,95736.97
2023-05-14T18:26:12.874Z,95686.75
2023-05-14T18:28:43.600Z,95743.06
2023-05-14T18:31:11.268Z,95737.31
2023-05-14T18:33:38.960Z,95746.19
2023-05-14T18:36:07.038Z,95727.72
2023-05-14T18:38:34.649Z,95750.72
2023-05-14T18:41:03.559Z,95734.38
2023-05-14T18:43:33.223Z,95696.22
2023-05-14T18:46:00.987Z,95722.41
2023-05-14T18:48:28.991Z,95755.88
2023-05-14T18:50:56.833Z,95763.34
2023-05-14T18:53:24.576Z,95732.66
2023-05-14T18:55:52.522Z,95758.50
2023-05-14T18:58:21.774Z,95698.53
2023-05-14T19:00:50.413Z,95755.38
2023-05-14T19:03:19.682Z,95738.50
2023-05-14T19:05:47.471Z,95761.22
2023-05-14T19:08:15.568Z,95763.34
2023-05-14T19:10:43.256Z,95726.72
2023-05-14T19:13:11.533Z,95760.91
2023-05-14T19:15:40.560Z,95754.13
2023-05-14T19:18:08.278Z,95770.97
2023-05-14T19:20:35.858Z,95766.81
2023-05-14T19:23:05.012Z,95775.53
2023-05-14T19:25:33.625Z,95768.72
2023-05-14T19:28:03.716Z,95770.84
2023-05-14T19:30:31.431Z,95763.28
2023-05-14T19:33:00.464Z,95765.63
2023-05-14T19:35:30.120Z,95780.59
2023-05-14T19:37:57.679Z,95781.69
2023-05-14T19:40:25.384Z,95767.59
2023-05-14T19:42:53.058Z,95778.88
2023-05-14T19:45:20.745Z,95773.94
2023-05-14T19:47:50.686Z,95784.63
2023-05-14T19:50:19.823Z,95778.88
2023-05-14T19:52:50.210Z,95777.41
2023-05-14T19:55:17.894Z,95777.91
2023-05-14T19:57:47.551Z,95753.44
2023-05-14T20:00:16.932Z,95776.69
2023-05-14T20:02:44.680Z,95785.06
2023-05-14T20:05:12.357Z,95757.56
2023-05-14T20:07:42.116Z,95786.63
2023-05-14T20:10:10.545Z,95776.44
2023-05-14T20:12:37.993Z,95766.00
2023-05-14T20:15:06.292Z,95758.47
2023-05-14T20:17:33.710Z,95775.22
2023-05-14T20:20:01.315Z,95763.75
2023-05-14T20:22:28.704Z,95777.38
2023-05-14T20:24:57.515Z,95774.75
2023-05-14T20:27:25.008Z,95777.59
2023-05-14T20:29:53.919Z,95769.50
2023-05-14T20:32:24.659Z,95766.84
2023-05-14T20:34:52.375Z,95764.75
2023-05-14T20:37:20.157Z,95765.00
2023-05-14T20:39:47.620Z,95762.69
2023-05-14T20:42:16.504Z,95764.81
2023-05-14T20:44:44.412Z,95758.84
2023-05-14T20:47:16.188Z,95763.84
2023-05-14T20:49:43.586Z,95766.72
2023-05-14T20:52:10.966Z,95758.59
2023-05-14T20:54:38.361Z,95764.88
2023-05-14T20:57:06.283Z,95766.97
2023-05-14T20:59:35.058Z,95769.88
2023-05-14T21:02:02.553Z,95762.53
2023-05-14T21:04:30.124Z,95759.63
2023-05-14T21:06:57.795Z,95764.88
2023-05-14T21:09:27.038Z,95768.00
2023-05-14T21:11:54.747Z,95761.41
2023-05-14T21:14:22.269Z,95765.31
2023-05-14T21:16:51.020Z,95764.25
2023-05-14T21:19:18.515Z,95766.31
2023-05-14T21:21:47.192Z,95779.16
2023-05-14T21:24:16.576Z,95774.22
2023-05-14T21:26:44.176Z,95775.47
2023-05-14T21:29:11.939Z,95772.59
2023-05-14T21:31:39.402Z,95774.72
2023-05-14T21:34:08.178Z,95776.50
2023-05-14T21:36:35.661Z,95774.72
2023-05-14T21:39:03.412Z,95778.41
2023-05-14T21:41:31.287Z,95765.81
2023-05-14T21:43:58.733Z,95773.69
2023-05-14T21:46:26.596Z,95771.13
2023-05-14T21:48:54.146Z,95777.13
2023-05-14T21:51:23.096Z,95762.16
2023-05-14T21:53:50.500Z,95764.03
2023-05-14T21:56:17.952Z,95757.47
2023-05-14T21:58:45.613Z,95745.72
2023-05-14T22:01:13.057Z,95754.66
2023-05-14T22:03:40.483Z,95756.25
2023-05-14T22:06:08.121Z,95755.97
2023-05-14T22:08:36.886Z,95749.66
2023-05-14T22:11:04.625Z,95751.03
2023-05-14T22:13:32.054Z,95729.56
2023-05-14T22:16:09.318Z,95751.78
2023-05-14T22:18:40.790Z,95746.34
2023-05-14T22:21:08.202Z,95754.41
2023-05-14T22:23:37.400Z,95741.66
2023-05-14T22:26:05.531Z,95748.16
2023-05-14T22:28:32.971Z,95755.50
2023-05-14T22:31:00.769Z,95747.66
2023-05-14T22:33:28.288Z,95743.97
2023-05-14T22:35:55.736Z,95749.75
2023-05-14T22:38:23.148Z,95744.00
2023-05-14T22:40:51.892Z,95734.88
2023-05-14T22:43:19.314Z,95738.25
2023-05-14T22:45:46.766Z,95730.69
2023-05-14T22:48:14.170Z,95739.28
2023-05-14T22:50:41.571Z,95731.19
2023-05-14T22:53:09.021Z,95725.97
2023-05-14T22:55:36.484Z,95724.44
2023-05-14T22:58:05.492Z,95727.78
2023-05-14T23:00:32.937Z,95731.47
2023-05-14T23:03:00.411Z,95725.44
2023-05-14T23:05:27.846Z,95711.31
2023-05-14T23:07:55.900Z,95717.81
2023-05-14T23:10:23.309Z,95722.50
2023-05-14T23:12:50.727Z,95716.25
2023-05-14T23:15:19.511Z,95715.72
2023-05-14T23:17:47.114Z,95721.75
2023-05-14T23:20:14.826Z,95712.88
2023-05-14T23:22:42.218Z,95708.16
2023-05-14T23:25:10.421Z,95711.81
2023-05-14T23:27:37.842Z,95713.41
2023-05-14T23:30:06.112Z,95702.13
2023-05-14T23:32:34.933Z,95705.03
2023-05-14T23:35:02.454Z,95696.41
2023-05-14T23:37:29.987Z,95687.50
2023-05-14T23:39:57.507Z,95695.88
2023-05-14T23:42:24.972Z,95692.75
2023-05-14T23:44:52.385Z,95651.56
2023-05-14T23:47:19.850Z,95686.53
2023-05-14T23:49:48.630Z,95682.09
2023-05-14T23:52:16.024Z,95684.47
2023-05-14T23:54:43.440Z,95680.31
2023-05-14T23:57:12.345Z,95679.78
2023-05-14T23:59:41.104Z,95684.72
